createdAt,value
2018-05-24T00:00:44.405Z,12.13
2018-05-24T00:03:11.868Z,12.77
2018-05-24T00:05:39.334Z,13.13
2018-05-24T00:08:06.797Z,11.77
2018-05-24T00:10:34.345Z,16.50
2018-05-24T00:13:01.804Z,12.50
2018-05-24T00:15:29.376Z,11.93
2018-05-24T00:17:56.820Z,12.37
2018-05-24T00:20:24.298Z,11.53
2018-05-24T00:22:51.792Z,14.47
2018-05-24T00:25:19.252Z,13.03
2018-05-24T00:27:46.791Z,11.03
2018-05-24T00:30:14.244Z,10.63
2018-05-24T00:32:41.821Z,12.77
2018-05-24T00:35:09.270Z,12.40
2018-05-24T00:37:36.738Z,13.60
2018-05-24T00:40:04.227Z,13.07
2018-05-24T00:42:31.675Z,12.30
2018-05-24T00:44:59.120Z,14.90
2018-05-24T00:47:26.583Z,16.70
2018-05-24T00:49:54.048Z,14.67
2018-05-24T00:52:21.513Z,17.40
2018-05-24T00:54:48.976Z,15.03
2018-05-24T00:57:16.537Z,14.27
2018-05-24T00:59:43.989Z,14.60
2018-05-24T01:02:11.566Z,15.07
2018-05-24T01:04:39.017Z,12.97
2018-05-24T01:07:06.494Z,15.77
2018-05-24T01:09:33.952Z,13.00
2018-05-24T01:12:01.416Z,14.77
2018-05-24T01:14:28.885Z,18.77
2018-05-24T01:16:56.361Z,15.13
2018-05-24T01:19:23.818Z,13.93
2018-05-24T01:21:51.289Z,15.10
2018-05-24T01:24:18.748Z,17.27
2018-05-24T01:26:46.209Z,17.53
2018-05-24T01:29:13.759Z,14.17
2018-05-24T01:31:41.220Z,18.37
2018-05-24T01:34:08.669Z,14.43
2018-05-24T01:37:01.927Z,15.07
2018-05-24T01:39:29.493Z,13.33
2018-05-24T01:41:56.954Z,17.33
2018-05-24T01:44:24.432Z,18.20
2018-05-24T01:46:51.904Z,16.83
2018-05-24T01:49:19.452Z,15.43
2018-05-24T01:51:46.905Z,14.90
2018-05-24T01:54:14.378Z,14.77
2018-05-24T01:56:41.853Z,16.47
2018-05-24T01:59:09.400Z,16.57
2018-05-24T02:01:36.860Z,13.60
2018-05-24T02:04:04.342Z,15.63
2018-05-24T02:06:31.793Z,13.30
2018-05-24T02:08:59.241Z,13.77
2018-05-24T02:11:26.698Z,15.87
2018-05-24T02:13:54.177Z,12.90
2018-05-24T02:16:21.621Z,14.80
2018-05-24T02:18:49.101Z,16.17
2018-05-24T02:21:16.550Z,13.50
2018-05-24T02:23:44.035Z,14.40
2018-05-24T02:26:11.462Z,13.83
2018-05-24T02:28:38.925Z,16.40
2018-05-24T02:31:06.399Z,15.13
2018-05-24T02:33:33.858Z,14.03
2018-05-24T02:36:01.510Z,14.23
2018-05-24T02:38:28.813Z,14.27
2018-05-24T02:40:56.365Z,14.63
2018-05-24T02:43:23.836Z,13.27
2018-05-24T02:45:51.289Z,14.37
2018-05-24T02:48:18.859Z,10.90
2018-05-24T02:50:46.327Z,12.97
2018-05-24T02:53:13.793Z,14.80
2018-05-24T02:55:41.349Z,11.23
2018-05-24T02:58:08.910Z,17.17
2018-05-24T03:00:36.354Z,13.77
2018-05-24T03:03:03.808Z,13.20
2018-05-24T03:05:31.299Z,13.90
2018-05-24T03:07:58.760Z,16.07
2018-05-24T03:10:26.226Z,15.20
2018-05-24T03:12:53.686Z,15.70
2018-05-24T03:15:21.153Z,15.30
2018-05-24T03:17:48.715Z,16.73
2018-05-24T03:20:16.181Z,15.73
2018-05-24T03:22:43.666Z,14.53
2018-05-24T03:25:11.129Z,15.17
2018-05-24T03:27:38.581Z,13.40
2018-05-24T03:30:06.053Z,13.43
2018-05-24T03:32:33.537Z,13.53
2018-05-24T03:35:01.783Z,11.63
2018-05-24T03:37:29.244Z,16.23
2018-05-24T03:39:56.702Z,13.87
2018-05-24T03:42:24.161Z,14.93
2018-05-24T03:44:51.632Z,15.53
2018-05-24T03:47:19.182Z,15.57
2018-05-24T03:49:46.661Z,16.67
2018-05-24T03:52:14.123Z,19.70
2018-05-24T03:54:41.669Z,19.23
2018-05-24T03:57:09.136Z,15.70
2018-05-24T03:59:59.125Z,17.03
2018-05-24T04:02:38.396Z,18.03
2018-05-24T04:05:06.727Z,16.17
2018-05-24T04:07:34.294Z,21.27
2018-05-24T04:10:01.857Z,17.27
2018-05-24T04:12:29.300Z,16.83
2018-05-24T04:14:56.769Z,17.10
2018-05-24T04:17:24.249Z,18.17
2018-05-24T04:19:51.695Z,16.53
2018-05-24T04:22:19.175Z,15.70
2018-05-24T04:24:46.733Z,14.80
2018-05-24T04:27:14.301Z,16.07
2018-05-24T04:29:41.740Z,15.03
2018-05-24T04:32:09.206Z,14.93
2018-05-24T04:34:36.685Z,14.70
2018-05-24T04:37:04.152Z,15.93
2018-05-24T04:39:31.621Z,16.07
2018-05-24T04:41:59.168Z,14.37
2018-05-24T04:44:26.649Z,20.63
2018-05-24T04:46:57.101Z,19.77
2018-05-24T04:49:24.569Z,18.73
2018-05-24T04:51:52.822Z,22.40
2018-05-24T04:54:20.297Z,20.00
2018-05-24T04:56:47.772Z,20.17
2018-05-24T04:59:15.275Z,23.00
2018-05-24T05:01:42.854Z,19.47
2018-05-24T05:04:10.243Z,21.43
2018-05-24T05:06:37.720Z,20.60
2018-05-24T05:09:06.066Z,20.57
2018-05-24T05:11:33.521Z,24.33
2018-05-24T05:14:00.992Z,22.97
2018-05-24T05:16:28.448Z,22.20
2018-05-24T05:18:55.934Z,21.00
2018-05-24T05:21:23.389Z,22.67
2018-05-24T05:23:50.945Z,25.37
2018-05-24T05:26:18.413Z,23.40
2018-05-24T05:28:45.862Z,18.33
2018-05-24T05:31:13.326Z,21.50
2018-05-24T05:33:40.816Z,24.13
2018-05-24T05:36:08.277Z,25.03
2018-05-24T05:38:35.753Z,25.07
2018-05-24T05:41:03.218Z,22.47
2018-05-24T05:43:30.762Z,24.70
2018-05-24T05:45:58.211Z,21.10
2018-05-24T05:48:25.687Z,24.73
2018-05-24T05:50:53.129Z,24.27
2018-05-24T05:53:20.609Z,23.70
2018-05-24T05:55:48.069Z,24.80
2018-05-24T05:58:15.539Z,26.83
2018-05-24T06:00:42.989Z,24.47
2018-05-24T06:03:10.469Z,22.77
2018-05-24T06:05:38.681Z,27.07
2018-05-24T06:08:06.913Z,25.80
2018-05-24T06:10:34.369Z,22.50
2018-05-24T06:13:01.937Z,25.47
2018-05-24T06:15:29.430Z,26.13
2018-05-24T06:17:56.969Z,30.77
2018-05-24T06:20:24.424Z,25.33
2018-05-24T06:22:51.905Z,24.53
2018-05-24T06:25:19.376Z,27.43
2018-05-24T06:27:46.847Z,26.70
2018-05-24T06:30:14.381Z,27.00
2018-05-24T06:32:41.849Z,28.40
2018-05-24T06:35:09.328Z,25.50
2018-05-24T06:37:36.764Z,26.33
2018-05-24T06:40:04.246Z,28.77
2018-05-24T06:42:31.689Z,26.77
2018-05-24T06:44:59.150Z,29.13
2018-05-24T06:47:26.613Z,27.53
2018-05-24T06:49:54.185Z,32.73
2018-05-24T06:52:21.649Z,27.83
2018-05-24T06:54:49.473Z,28.87
2018-05-24T06:57:17.684Z,31.73
2018-05-24T06:59:45.161Z,28.20
2018-05-24T07:02:12.630Z,29.80
2018-05-24T07:04:40.081Z,26.53
2018-05-24T07:07:07.549Z,28.87
2018-05-24T07:09:35.014Z,32.10
2018-05-24T07:12:02.479Z,28.70
2018-05-24T07:14:29.917Z,26.40
2018-05-24T07:16:57.392Z,33.97
2018-05-24T07:19:24.957Z,32.37
2018-05-24T07:21:52.432Z,31.20
2018-05-24T07:24:19.913Z,27.47
2018-05-24T07:26:47.393Z,29.07
2018-05-24T07:29:15.617Z,33.23
2018-05-24T07:31:43.085Z,32.70
2018-05-24T07:34:10.537Z,33.73
2018-05-24T07:36:38.017Z,29.43
2018-05-24T07:39:05.489Z,30.87
2018-05-24T07:41:33.044Z,36.43
2018-05-24T07:44:00.535Z,39.63
2018-05-24T07:46:28.010Z,32.13
2018-05-24T07:48:56.223Z,30.20
2018-05-24T07:51:23.695Z,31.07
2018-05-24T07:53:51.141Z,30.60
2018-05-24T07:56:18.610Z,30.40
2018-05-24T07:58:46.104Z,31.30
2018-05-24T08:01:13.577Z,34.03
2018-05-24T08:03:41.027Z,35.63
2018-05-24T08:06:08.594Z,30.93
2018-05-24T08:08:36.099Z,30.23
2018-05-24T08:11:03.525Z,29.43
2018-05-24T08:13:30.972Z,30.87
2018-05-24T08:15:58.440Z,32.20
2018-05-24T08:18:25.912Z,27.30
2018-05-24T08:20:53.381Z,30.27
2018-05-24T08:23:20.855Z,28.90
2018-05-24T08:25:48.323Z,28.43
2018-05-24T08:28:15.779Z,28.73
2018-05-24T08:30:43.246Z,28.63
2018-05-24T08:33:10.705Z,26.00
2018-05-24T08:35:38.171Z,22.13
2018-05-24T08:38:05.702Z,25.37
2018-05-24T08:40:33.256Z,25.27
2018-05-24T08:43:00.641Z,25.37
2018-05-24T08:45:28.097Z,25.37
2018-05-24T08:47:55.653Z,27.77
2018-05-24T08:50:23.105Z,25.63
2018-05-24T08:52:50.568Z,22.37
2018-05-24T08:55:18.023Z,26.90
2018-05-24T08:57:45.513Z,23.53
2018-05-24T09:00:13.064Z,25.67
2018-05-24T09:02:40.641Z,22.90
2018-05-24T09:05:08.197Z,19.97
2018-05-24T09:07:35.660Z,21.33
2018-05-24T09:10:03.128Z,20.43
2018-05-24T09:12:30.685Z,17.57
2018-05-24T09:14:58.146Z,16.10
2018-05-24T09:17:26.027Z,15.83
2018-05-24T09:19:53.585Z,20.13
2018-05-24T09:22:21.039Z,18.27
2018-05-24T09:24:48.524Z,15.87
2018-05-24T09:27:15.968Z,13.77
2018-05-24T09:29:43.436Z,13.80
2018-05-24T09:32:10.891Z,12.93
2018-05-24T09:34:38.354Z,15.23
2018-05-24T09:37:05.829Z,16.10
2018-05-24T09:39:33.388Z,13.77
2018-05-24T09:42:00.842Z,16.00
2018-05-24T09:44:28.396Z,15.63
2018-05-24T09:46:55.849Z,13.03
2018-05-24T09:49:23.345Z,14.73
2018-05-24T09:51:50.797Z,14.60
2018-05-24T09:54:18.385Z,11.23
2018-05-24T09:56:45.829Z,17.17
2018-05-24T09:59:13.401Z,11.03
2018-05-24T10:01:41.474Z,13.17
2018-05-24T10:04:08.955Z,11.30
2018-05-24T10:06:36.506Z,10.63
2018-05-24T10:09:03.970Z,7.90
2018-05-24T10:11:31.533Z,7.10
2018-05-24T10:13:58.994Z,5.97
2018-05-24T10:16:26.505Z,5.30
2018-05-24T10:18:53.922Z,10.60
2018-05-24T10:21:21.372Z,11.53
2018-05-24T10:23:48.828Z,17.27
2018-05-24T10:26:16.300Z,16.73
2018-05-24T10:28:43.764Z,18.57
2018-05-24T10:31:11.241Z,17.77
2018-05-24T10:33:38.689Z,17.67
2018-05-24T10:36:06.254Z,16.87
2018-05-24T10:38:33.730Z,18.63
2018-05-24T10:41:01.177Z,17.10
2018-05-24T10:43:28.641Z,15.50
2018-05-24T10:45:56.132Z,17.73
2018-05-24T10:48:23.591Z,16.30
2018-05-24T10:50:51.145Z,19.57
2018-05-24T10:53:18.593Z,17.90
2018-05-24T10:55:46.053Z,21.07
2018-05-24T10:58:13.509Z,15.30
2018-05-24T11:00:40.991Z,14.40
2018-05-24T11:03:08.562Z,11.43
2018-05-24T11:05:35.885Z,12.13
2018-05-24T11:08:03.348Z,12.80
2018-05-24T11:10:30.833Z,9.30
2018-05-24T11:12:58.272Z,10.63
2018-05-24T11:15:25.757Z,11.97
2018-05-24T11:17:53.228Z,9.73
2018-05-24T11:20:20.700Z,10.13
2018-05-24T11:22:48.147Z,7.00
2018-05-24T11:25:15.745Z,6.53
2018-05-24T11:27:43.173Z,7.23
2018-05-24T11:30:10.633Z,9.13
2018-05-24T11:32:38.205Z,7.87
2018-05-24T11:35:05.764Z,5.80
2018-05-24T11:37:33.338Z,5.73
2018-05-24T11:40:00.811Z,5.00
2018-05-24T11:42:28.250Z,5.07
2018-05-24T11:44:55.721Z,7.27
2018-05-24T11:47:23.173Z,5.40
2018-05-24T11:49:50.650Z,5.00
2018-05-24T11:52:18.107Z,5.00
2018-05-24T11:54:45.558Z,4.87
2018-05-24T11:57:13.013Z,4.40
2018-05-24T11:59:40.548Z,5.67
2018-05-24T12:02:08.551Z,7.07
2018-05-24T12:04:36.046Z,4.70
2018-05-24T12:07:03.621Z,4.87
2018-05-24T12:09:31.289Z,5.03
2018-05-24T12:12:00.429Z,5.10
2018-05-24T12:14:27.881Z,6.20
2018-05-24T12:16:55.393Z,5.13
2018-05-24T12:19:22.868Z,4.80
2018-05-24T12:21:50.420Z,4.50
2018-05-24T12:24:17.866Z,4.63
2018-05-24T12:26:45.700Z,7.23
2018-05-24T12:29:14.010Z,7.83
2018-05-24T12:31:41.389Z,7.73
2018-05-24T12:34:08.860Z,6.80
2018-05-24T12:36:36.318Z,5.20
2018-05-24T12:39:03.786Z,6.70
2018-05-24T12:41:31.275Z,5.37
2018-05-24T12:43:58.678Z,5.33
2018-05-24T12:46:26.173Z,5.33
2018-05-24T12:48:53.665Z,5.60
2018-05-24T12:51:21.197Z,6.17
2018-05-24T12:53:48.631Z,4.87
2018-05-24T12:56:16.125Z,6.37
2018-05-24T12:58:44.403Z,5.33
2018-05-24T13:01:11.875Z,5.07
2018-05-24T13:03:39.430Z,4.83
2018-05-24T13:06:06.868Z,4.47
2018-05-24T13:08:34.323Z,5.40
2018-05-24T13:11:01.781Z,4.83
2018-05-24T13:13:29.859Z,5.90
2018-05-24T13:15:57.376Z,4.77
2018-05-24T13:18:24.825Z,6.30
2018-05-24T13:20:52.280Z,4.23
2018-05-24T13:23:19.749Z,4.37
2018-05-24T13:25:47.315Z,4.90
2018-05-24T13:28:14.782Z,4.77
2018-05-24T13:30:42.213Z,4.60
2018-05-24T13:33:09.689Z,4.60
2018-05-24T13:35:37.127Z,4.27
2018-05-24T13:38:04.617Z,3.83
2018-05-24T13:40:32.174Z,3.97
2018-05-24T13:42:59.556Z,4.13
2018-05-24T13:45:27.105Z,4.80
2018-05-24T13:47:54.572Z,3.67
2018-05-24T13:50:22.129Z,4.23
2018-05-24T13:52:49.610Z,4.50
2018-05-24T13:55:17.124Z,6.13
2018-05-24T13:57:44.594Z,4.60
2018-05-24T14:00:12.095Z,6.00
2018-05-24T14:02:39.550Z,4.43
2018-05-24T14:05:07.113Z,7.23
2018-05-24T14:07:34.585Z,13.43
2018-05-24T14:10:02.054Z,9.93
2018-05-24T14:12:29.612Z,8.37
2018-05-24T14:14:57.076Z,12.30
2018-05-24T14:17:24.564Z,10.47
2018-05-24T14:19:52.008Z,7.07
2018-05-24T14:22:19.465Z,9.20
2018-05-24T14:24:46.912Z,7.37
2018-05-24T14:27:14.481Z,7.90
2018-05-24T14:29:41.926Z,9.67
2018-05-24T14:32:09.405Z,8.60
2018-05-24T14:34:36.879Z,9.70
2018-05-24T14:37:05.096Z,7.00
2018-05-24T14:39:33.429Z,9.60
2018-05-24T14:42:00.891Z,8.50
2018-05-24T14:44:28.325Z,9.90
2018-05-24T14:46:55.851Z,8.33
2018-05-24T14:49:23.381Z,9.13
2018-05-24T14:51:50.944Z,9.43
2018-05-24T14:54:18.409Z,12.47
2018-05-24T14:56:45.870Z,10.30
2018-05-24T14:59:13.369Z,11.43
2018-05-24T15:01:40.799Z,13.50
2018-05-24T15:04:08.265Z,11.03
2018-05-24T15:06:35.725Z,10.83
2018-05-24T15:09:03.202Z,13.07
2018-05-24T15:11:30.676Z,12.13
2018-05-24T15:13:58.120Z,12.53
2018-05-24T15:16:25.678Z,16.37
2018-05-24T15:18:53.136Z,15.53
2018-05-24T15:21:20.600Z,14.73
2018-05-24T15:23:48.172Z,16.90
2018-05-24T15:26:15.632Z,18.80
2018-05-24T15:28:43.101Z,17.23
2018-05-24T15:31:10.653Z,18.63
2018-05-24T15:33:38.220Z,18.47
2018-05-24T15:36:05.779Z,18.13
2018-05-24T15:38:33.223Z,20.53
2018-05-24T15:41:00.693Z,16.03
2018-05-24T15:43:28.141Z,19.87
2018-05-24T15:45:55.621Z,16.77
2018-05-24T15:48:23.073Z,16.43
2018-05-24T15:50:50.521Z,22.33
2018-05-24T15:53:17.995Z,18.87
2018-05-24T15:55:45.916Z,18.50
2018-05-24T15:58:13.373Z,16.97
2018-05-24T16:00:41.022Z,18.10
2018-05-24T16:03:08.488Z,19.17
2018-05-24T16:05:36.049Z,20.80
2018-05-24T16:08:04.294Z,18.67
2018-05-24T16:10:32.497Z,16.20
2018-05-24T16:12:59.973Z,13.37
2018-05-24T16:15:27.453Z,13.13
2018-05-24T16:17:54.892Z,10.97
2018-05-24T16:20:22.357Z,10.93
2018-05-24T16:22:49.809Z,13.83
2018-05-24T16:25:17.265Z,10.13
2018-05-24T16:27:44.770Z,9.97
2018-05-24T16:30:12.204Z,10.43
2018-05-24T16:32:39.685Z,11.23
2018-05-24T16:35:07.233Z,9.87
2018-05-24T16:37:34.701Z,10.73
2018-05-24T16:40:02.166Z,10.67
2018-05-24T16:42:29.613Z,11.13
2018-05-24T16:44:57.094Z,11.10
2018-05-24T16:47:24.551Z,9.97
2018-05-24T16:49:52.010Z,10.37
2018-05-24T16:52:19.567Z,8.63
2018-05-24T16:54:47.059Z,9.90
2018-05-24T16:57:14.530Z,10.57
2018-05-24T16:59:41.972Z,9.77
2018-05-24T17:02:09.432Z,9.57
2018-05-24T17:04:36.888Z,9.33
2018-05-24T17:07:04.349Z,9.47
2018-05-24T17:09:31.792Z,7.73
2018-05-24T17:11:59.254Z,8.43
2018-05-24T17:14:26.723Z,10.97
2018-05-24T17:16:54.178Z,10.97
2018-05-24T17:19:21.669Z,8.87
2018-05-24T17:21:49.333Z,10.97
2018-05-24T17:24:16.892Z,8.40
2018-05-24T17:26:44.365Z,8.20
2018-05-24T17:29:11.834Z,8.67
2018-05-24T17:31:39.387Z,8.73
2018-05-24T17:34:06.860Z,10.30
2018-05-24T17:36:34.326Z,9.17
2018-05-24T17:39:01.773Z,9.60
2018-05-24T17:41:30.152Z,8.83
2018-05-24T17:43:57.629Z,9.50
2018-05-24T17:46:25.076Z,10.97
2018-05-24T17:48:52.546Z,9.67
2018-05-24T17:51:20.001Z,10.40
2018-05-24T17:53:47.441Z,9.77
2018-05-24T17:56:14.889Z,9.83
2018-05-24T17:58:42.375Z,8.67
2018-05-24T18:01:09.843Z,7.67
2018-05-24T18:03:37.303Z,8.80
2018-05-24T18:06:04.793Z,13.20
2018-05-24T18:08:32.263Z,10.33
2018-05-24T18:10:59.709Z,9.13
2018-05-24T18:13:28.108Z,9.87
2018-05-24T18:15:55.654Z,10.67
2018-05-24T18:18:23.129Z,9.30
2018-05-24T18:20:50.679Z,8.87
2018-05-24T18:23:18.142Z,8.33
2018-05-24T18:25:45.595Z,10.20
2018-05-24T18:28:13.057Z,8.70
2018-05-24T18:30:40.508Z,10.97
2018-05-24T18:33:07.966Z,9.37
2018-05-24T18:35:35.535Z,9.37
2018-05-24T18:38:03.019Z,11.37
2018-05-24T18:40:30.490Z,11.97
2018-05-24T18:42:58.021Z,8.60
2018-05-24T18:45:25.393Z,8.77
2018-05-24T18:47:52.875Z,10.57
2018-05-24T18:50:20.325Z,11.87
2018-05-24T18:52:47.798Z,9.10
2018-05-24T18:55:15.256Z,7.70
2018-05-24T18:57:42.697Z,8.37
2018-05-24T19:00:10.161Z,7.60
2018-05-24T19:02:37.633Z,8.50
2018-05-24T19:05:05.104Z,9.23
2018-05-24T19:07:32.573Z,6.70
2018-05-24T19:10:00.040Z,7.80
2018-05-24T19:12:27.498Z,5.37
2018-05-24T19:14:55.058Z,4.83
2018-05-24T19:17:23.262Z,4.57
2018-05-24T19:19:50.718Z,7.90
2018-05-24T19:22:18.449Z,5.17
2018-05-24T19:24:45.899Z,4.90
2018-05-24T19:27:13.372Z,5.03
2018-05-24T19:29:40.857Z,6.37
2018-05-24T19:32:08.324Z,3.80
2018-05-24T19:34:35.774Z,4.33
2018-05-24T19:37:03.237Z,5.37
2018-05-24T19:39:30.709Z,5.43
2018-05-24T19:41:58.274Z,6.07
2018-05-24T19:44:25.832Z,5.50
2018-05-24T19:46:53.277Z,4.30
2018-05-24T19:49:20.745Z,4.17
2018-05-24T19:51:48.189Z,4.80
2018-05-24T19:54:15.645Z,3.87
2018-05-24T19:56:43.887Z,7.50
2018-05-24T19:59:11.436Z,6.47
2018-05-24T20:01:38.898Z,4.20
2018-05-24T20:04:06.359Z,6.80
2018-05-24T20:06:33.799Z,7.10
2018-05-24T20:09:01.281Z,6.40
2018-05-24T20:11:28.747Z,6.83
2018-05-24T20:13:56.207Z,7.40
2018-05-24T20:16:23.677Z,9.03
2018-05-24T20:18:51.137Z,6.17
2018-05-24T20:21:18.597Z,7.17
2018-05-24T20:23:46.070Z,5.97
2018-05-24T20:26:13.522Z,5.37
2018-05-24T20:28:41.082Z,5.17
2018-05-24T20:31:08.546Z,6.50
2018-05-24T20:33:36.351Z,7.53
2018-05-24T20:36:03.878Z,6.93
2018-05-24T20:38:31.325Z,5.03
2018-05-24T20:40:58.772Z,6.67
2018-05-24T20:43:26.244Z,9.03
2018-05-24T20:45:53.677Z,9.10
2018-05-24T20:48:21.885Z,7.20
2018-05-24T20:50:49.340Z,8.67
2018-05-24T20:53:16.785Z,7.23
2018-05-24T20:55:45.111Z,8.27
2018-05-24T20:58:12.566Z,8.03
2018-05-24T21:00:40.044Z,6.83
2018-05-24T21:03:07.525Z,8.47
2018-05-24T21:05:34.993Z,7.90
2018-05-24T21:08:02.462Z,6.47
2018-05-24T21:10:29.898Z,6.93
2018-05-24T21:12:57.458Z,9.27
2018-05-24T21:15:24.895Z,6.30
2018-05-24T21:17:52.355Z,6.27
2018-05-24T21:20:19.827Z,6.03
2018-05-24T21:22:47.275Z,5.67
2018-05-24T21:25:14.743Z,6.57
2018-05-24T21:27:42.178Z,4.93
2018-05-24T21:30:10.420Z,5.20
2018-05-24T21:32:37.869Z,6.50
2018-05-24T21:35:05.336Z,5.13
2018-05-24T21:37:32.810Z,5.20
2018-05-24T21:40:00.362Z,5.67
2018-05-24T21:42:27.831Z,5.03
2018-05-24T21:44:55.386Z,4.47
2018-05-24T21:47:22.862Z,6.50
2018-05-24T21:49:50.297Z,4.07
2018-05-24T21:52:17.769Z,4.77
2018-05-24T21:54:45.232Z,7.50
2018-05-24T21:57:12.681Z,5.07
2018-05-24T21:59:40.125Z,7.27
2018-05-24T22:02:07.630Z,6.57
2018-05-24T22:04:35.053Z,4.77
2018-05-24T22:07:02.503Z,7.27
2018-05-24T22:09:30.713Z,4.77
2018-05-24T22:11:58.181Z,4.47
2018-05-24T22:14:25.673Z,4.37
2018-05-24T22:16:53.122Z,4.97
2018-05-24T22:19:20.556Z,5.20
2018-05-24T22:21:48.019Z,4.17
2018-05-24T22:24:15.461Z,6.30
2018-05-24T22:26:42.929Z,4.93
2018-05-24T22:29:10.385Z,6.37
2018-05-24T22:31:37.901Z,5.37
2018-05-24T22:34:05.362Z,7.43
2018-05-24T22:36:32.818Z,8.20
2018-05-24T22:39:00.383Z,4.70
2018-05-24T22:41:27.826Z,5.40
2018-05-24T22:43:55.296Z,4.87
2018-05-24T22:46:22.757Z,8.07
2018-05-24T22:48:50.212Z,4.00
2018-05-24T22:51:17.676Z,6.53
2018-05-24T22:53:45.133Z,4.60
2018-05-24T22:56:12.591Z,6.50
2018-05-24T22:58:40.049Z,3.93
2018-05-24T23:01:07.504Z,4.40
2018-05-24T23:03:35.245Z,7.10
2018-05-24T23:06:02.784Z,4.27
2018-05-24T23:08:30.341Z,5.70
2018-05-24T23:10:57.905Z,6.97
2018-05-24T23:13:25.374Z,8.07
2018-05-24T23:15:52.823Z,5.43
2018-05-24T23:18:20.263Z,4.23
2018-05-24T23:20:47.738Z,8.00
2018-05-24T23:23:15.187Z,5.67
2018-05-24T23:25:42.626Z,6.70
2018-05-24T23:28:10.089Z,7.10
2018-05-24T23:30:38.321Z,8.77
2018-05-24T23:33:05.793Z,7.57
2018-05-24T23:35:33.248Z,7.03
2018-05-24T23:38:00.697Z,5.27
2018-05-24T23:40:28.159Z,4.27
2018-05-24T23:42:55.611Z,6.57
2018-05-24T23:45:23.069Z,4.27
2018-05-24T23:47:50.538Z,4.57
2018-05-24T23:50:28.912Z,4.40
2018-05-24T23:52:57.142Z,4.53
2018-05-24T23:55:24.609Z,6.80
2018-05-24T23:57:52.051Z,7.30
